Time;durP1;ratioP1;P1;durP2;ratioP2;P2;SDS_P1;SDS_P2;PMS_P1;PMS_P2;Temp;Humidity;BMP_temperature;BMP_pressure;BME280_temperature;BME280_humidity;BME280_pressure;Samples;Min_cycle;Max_cycle;Signal;HPM_P1;HPM_P2
2021/04/16 00:01:50;;;;;;;5.88;4.03;;;;;;;-139.48;100.00;61774.03;5019269;28;20051;-65
2021/04/16 00:04:34;;;;;;;7.63;4.03;;;;;;;-139.48;100.00;61774.03;5019097;28;20076;-65
2021/04/16 00:07:18;;;;;;;7.78;4.32;;;;;;;-139.48;100.00;61774.03;5018986;28;20044;-64
2021/04/16 00:10:07;;;;;;;5.65;4.10;;;;;;;-139.48;100.00;61774.03;5018786;28;20186;-64
2021/04/16 00:12:51;;;;;;;7.68;4.32;;;;;;;-139.48;100.00;61774.03;5018931;28;20052;-64
2021/04/16 00:15:37;;;;;;;11.57;4.05;;;;;;;-139.48;100.00;61774.03;5033667;28;20137;-65
2021/04/16 00:18:24;;;;;;;8.45;4.25;;;;;;;-139.48;100.00;61774.03;5018909;28;20048;-64
2021/04/16 00:21:09;;;;;;;9.80;4.03;;;;;;;-139.48;100.00;61774.03;5019060;28;20091;-64
2021/04/16 00:23:53;;;;;;;5.50;3.60;;;;;;;-139.48;100.00;61774.03;5033989;28;20048;-65
2021/04/16 00:26:38;;;;;;;6.60;4.15;;;;;;;-139.48;100.00;61774.03;5018506;28;20095;-65
2021/04/16 00:29:22;;;;;;;6.65;3.65;;;;;;;-139.48;100.00;61774.03;5018495;28;20051;-65
2021/04/16 00:32:06;;;;;;;7.35;4.72;;;;;;;-139.48;100.00;61774.03;5004856;28;20127;-66
2021/04/16 00:34:50;;;;;;;7.03;4.40;;;;;;;-139.48;100.00;61774.03;5018340;28;20060;-65
2021/04/16 00:37:34;;;;;;;7.90;3.95;;;;;;;-139.48;100.00;61774.03;5033593;28;20060;-65
2021/04/16 00:40:23;;;;;;;6.15;3.80;;;;;;;-139.48;100.00;61774.03;5018675;28;20410;-64
2021/04/16 00:43:08;;;;;;;6.30;3.78;;;;;;;-139.48;100.00;61774.03;5018219;28;20099;-65
2021/04/16 00:45:59;;;;;;;5.65;3.88;;;;;;;-139.48;100.00;61774.03;5018610;28;20048;-65
2021/04/16 00:48:46;;;;;;;6.53;3.97;;;;;;;-139.48;100.00;61774.03;5018526;28;20506;-65
2021/04/16 00:51:35;;;;;;;6.82;4.35;;;;;;;-139.48;100.00;61774.03;5033167;28;20092;-65
2021/04/16 00:54:22;;;;;;;7.82;3.67;;;;;;;-139.48;100.00;61774.03;5004303;28;20159;-64
2021/04/16 00:57:07;;;;;;;5.03;3.80;;;;;;;-139.48;100.00;61774.03;5018399;28;20048;-64
2021/04/16 00:59:54;;;;;;;8.20;3.50;;;;;;;-139.48;100.00;61774.03;5018183;28;20469;-64
2021/04/16 01:02:38;;;;;;;4.97;3.63;;;;;;;-139.48;100.00;61774.03;5018453;28;20048;-65
2021/04/16 01:05:22;;;;;;;8.07;4.00;;;;;;;-139.48;100.00;61774.03;5018831;28;20514;-64
2021/04/16 01:08:07;;;;;;;6.70;3.47;;;;;;;-139.48;100.00;61774.03;5018277;28;20636;-65
2021/04/16 01:10:52;;;;;;;7.07;3.60;;;;;;;-139.48;100.00;61774.03;5034592;28;20052;-65
2021/04/16 01:13:37;;;;;;;5.97;3.45;;;;;;;-139.48;100.00;61774.03;5021796;28;20467;-64
2021/04/16 01:16:28;;;;;;;7.47;3.50;;;;;;;-139.48;100.00;61774.03;5022271;28;20506;-65
2021/04/16 01:19:39;;;;;;;4.30;2.80;;;;;;;-139.48;100.00;61774.03;5023134;28;20044;-65
2021/04/16 01:22:28;;;;;;;5.38;3.53;;;;;;;-139.48;100.00;61774.03;5022189;28;20458;-65
2021/04/16 01:25:12;;;;;;;6.88;3.85;;;;;;;-139.48;100.00;61774.03;5022073;28;20410;-65
2021/04/16 01:27:57;;;;;;;8.75;3.85;;;;;;;-139.48;100.00;61774.03;5021828;28;20064;-65
2021/04/16 01:31:08;;;;;;;4.38;3.35;;;;;;;-139.48;100.00;61774.03;5021760;28;20099;-65
2021/04/16 01:33:52;;;;;;;5.70;2.90;;;;;;;-139.48;100.00;61774.03;5007647;28;20044;-65
2021/04/16 01:36:36;;;;;;;5.88;3.45;;;;;;;-139.48;100.00;61774.03;5021741;28;20108;-65
2021/04/16 01:39:22;;;;;;;5.32;3.53;;;;;;;-139.48;100.00;61774.03;5008057;28;20048;-65
2021/04/16 01:42:06;;;;;;;4.43;3.13;;;;;;;-139.48;100.00;61774.03;5022037;28;20127;-65
2021/04/16 01:44:50;;;;;;;5.90;3.25;;;;;;;-139.48;100.00;61774.03;5021708;28;20052;-65
2021/04/16 01:47:34;;;;;;;4.68;3.50;;;;;;;-139.48;100.00;61774.03;5021672;28;20456;-64
2021/04/16 01:50:18;;;;;;;7.30;3.90;;;;;;;-139.48;100.00;61774.03;5007807;28;20051;-65
2021/04/16 01:53:03;;;;;;;6.05;3.53;;;;;;;-139.48;100.00;61774.03;5021706;28;20049;-65
2021/04/16 01:55:51;;;;;;;5.38;3.58;;;;;;;-139.48;100.00;61774.03;5021565;28;20072;-65
2021/04/16 01:58:35;;;;;;;5.32;3.60;;;;;;;-139.48;100.00;61774.03;5021483;28;20090;-65
2021/04/16 02:01:19;;;;;;;5.60;3.50;;;;;;;-139.48;100.00;61774.03;5021454;28;20048;-64
2021/04/16 02:04:03;;;;;;;5.38;3.83;;;;;;;-139.48;100.00;61774.03;5021169;28;20053;-66
2021/04/16 02:06:48;;;;;;;6.95;3.83;;;;;;;-139.48;100.00;61774.03;5036346;28;20048;-66
2021/04/16 02:09:34;;;;;;;4.95;3.10;;;;;;;-139.48;100.00;61774.03;5021117;28;20128;-66
2021/04/16 02:12:22;;;;;;;7.00;3.20;;;;;;;-139.48;100.00;61774.03;5020972;28;20529;-66
2021/04/16 02:15:08;;;;;;;4.03;3.55;;;;;;;-139.48;100.00;61774.03;5020668;28;20049;-66
2021/04/16 02:17:51;;;;;;;6.80;3.65;;;;;;;-139.48;100.00;61774.03;5007287;28;20418;-66
2021/04/16 02:20:35;;;;;;;6.57;3.53;;;;;;;-139.48;100.00;61774.03;5021134;28;20048;-66
2021/04/16 02:23:21;;;;;;;7.75;3.65;;;;;;;-139.48;100.00;61774.03;5020559;28;20044;-66
2021/04/16 02:26:05;;;;;;;7.03;3.72;;;;;;;-139.48;100.00;61774.03;5036270;28;20048;-66
2021/04/16 02:28:49;;;;;;;5.18;3.30;;;;;;;-139.48;100.00;61774.03;5035952;28;20091;-66
2021/04/16 02:31:33;;;;;;;4.55;3.47;;;;;;;-139.48;100.00;61774.03;5007170;28;20048;-66
2021/04/16 02:34:22;;;;;;;7.15;3.85;;;;;;;-139.48;100.00;61774.03;5020463;28;20048;-66
2021/04/16 02:37:13;;;;;;;7.30;3.55;;;;;;;-139.48;100.00;61774.03;5020723;28;20051;-65
2021/04/16 02:39:57;;;;;;;5.10;3.38;;;;;;;-139.48;100.00;61774.03;5020614;28;20203;-66
2021/04/16 02:42:41;;;;;;;4.25;3.40;;;;;;;-139.48;100.00;61774.03;5020674;28;20438;-66
2021/04/16 02:45:26;;;;;;;5.85;3.45;;;;;;;-139.48;100.00;61774.03;5020338;28;20505;-65
2021/04/16 02:48:10;;;;;;;5.60;3.47;;;;;;;-139.48;100.00;61774.03;5035476;28;20513;-66
2021/04/16 02:50:54;;;;;;;4.25;3.53;;;;;;;-139.48;100.00;61774.03;5006792;28;20079;-66
2021/04/16 02:53:38;;;;;;;4.75;3.45;;;;;;;-139.48;100.00;61774.03;5035297;28;20465;-65
2021/04/16 02:56:23;;;;;;;5.40;3.60;;;;;;;-139.48;100.00;61774.03;5035291;28;20473;-66
2021/04/16 02:59:08;;;;;;;5.53;3.70;;;;;;;-139.48;100.00;61774.03;5020331;28;20102;-66
2021/04/16 03:01:52;;;;;;;6.18;3.55;;;;;;;-139.48;100.00;61774.03;5020451;28;20473;-66
2021/04/16 03:04:36;;;;;;;7.93;3.78;;;;;;;-139.48;100.00;61774.03;5020021;28;20047;-66
2021/04/16 03:07:20;;;;;;;7.00;3.83;;;;;;;-139.48;100.00;61774.03;5034960;28;20056;-66
2021/04/16 03:10:09;;;;;;;4.47;3.60;;;;;;;-139.48;100.00;61774.03;5020429;28;20564;-65
2021/04/16 03:12:53;;;;;;;6.10;3.78;;;;;;;-139.48;100.00;61774.03;5035046;28;20099;-66
2021/04/16 03:15:37;;;;;;;6.22;3.80;;;;;;;-139.48;100.00;61774.03;5036273;28;20060;-70
2021/04/16 03:18:21;;;;;;;5.57;3.50;;;;;;;-139.48;100.00;61774.03;5019993;28;20052;-70
2021/04/16 03:21:06;;;;;;;6.32;3.72;;;;;;;-139.48;100.00;61774.03;5034681;28;20052;-68
2021/04/16 03:23:50;;;;;;;5.15;3.47;;;;;;;-139.48;100.00;61774.03;5019720;28;20047;-69
2021/04/16 03:26:34;;;;;;;6.40;4.38;;;;;;;-139.48;100.00;61774.03;5019826;28;20554;-69
2021/04/16 03:29:18;;;;;;;7.65;3.90;;;;;;;-139.48;100.00;61774.03;5005959;28;20071;-70
2021/04/16 03:32:02;;;;;;;7.45;4.10;;;;;;;-139.48;100.00;61774.03;5019760;28;20067;-69
2021/04/16 03:34:46;;;;;;;6.07;4.00;;;;;;;-139.48;100.00;61774.03;5018502;28;20043;-70
2021/04/16 03:37:30;;;;;;;7.30;4.38;;;;;;;-139.48;100.00;61774.03;5034407;28;20060;-70
2021/04/16 03:40:17;;;;;;;5.28;4.10;;;;;;;-139.48;100.00;61774.03;5034675;28;20504;-70
2021/04/16 03:43:01;;;;;;;8.77;4.30;;;;;;;-139.48;100.00;61774.03;5019291;28;20121;-68
2021/04/16 03:45:45;;;;;;;12.68;4.68;;;;;;;-139.48;100.00;61774.03;5019748;28;20053;-70
2021/04/16 03:48:29;;;;;;;6.45;4.10;;;;;;;-139.48;100.00;61774.03;5019179;28;20099;-69
2021/04/16 03:51:14;;;;;;;6.25;4.63;;;;;;;-139.48;100.00;61774.03;5034128;28;20099;-70
2021/04/16 03:53:58;;;;;;;6.03;4.15;;;;;;;-139.48;100.00;61774.03;5019177;28;20048;-70
2021/04/16 03:56:42;;;;;;;5.10;4.28;;;;;;;-139.48;100.00;61774.03;5019505;28;20509;-70
2021/04/16 03:59:26;;;;;;;6.90;4.18;;;;;;;-139.48;100.00;61774.03;5034220;28;20052;-70
2021/04/16 04:02:10;;;;;;;7.13;4.57;;;;;;;-139.48;100.00;61774.03;5019206;28;20048;-68
2021/04/16 04:04:55;;;;;;;8.43;4.20;;;;;;;-139.48;100.00;61774.03;5005582;28;20048;-70
2021/04/16 04:07:39;;;;;;;6.22;4.40;;;;;;;-139.48;100.00;61774.03;5019075;28;20080;-70
2021/04/16 04:10:23;;;;;;;8.75;4.07;;;;;;;-139.48;100.00;61774.03;5019210;28;20092;-70
2021/04/16 04:13:11;;;;;;;7.28;4.45;;;;;;;-139.48;100.00;61774.03;5018775;28;20405;-70
2021/04/16 04:15:55;;;;;;;5.70;4.25;;;;;;;-139.48;100.00;61774.03;5004886;28;20068;-69
2021/04/16 04:18:39;;;;;;;7.43;4.63;;;;;;;-139.48;100.00;61774.03;5018704;28;20055;-69
2021/04/16 04:21:23;;;;;;;7.07;4.47;;;;;;;-139.48;100.00;61774.03;5033539;28;20425;-70
2021/04/16 04:24:07;;;;;;;7.53;4.57;;;;;;;-139.48;100.00;61774.03;5033574;28;20044;-70
2021/04/16 04:26:51;;;;;;;;;;;;;;;-139.48;100.00;61774.03;5005387;28;20095;-69
2021/04/16 04:29:35;;;;;;;6.32;4.38;;;;;;;-139.48;100.00;61774.03;5018810;28;19920;-70
2021/04/16 04:32:19;;;;;;;7.20;4.85;;;;;;;-139.48;100.00;61774.03;5033514;28;20103;-69
2021/04/16 04:35:03;;;;;;;6.30;4.53;;;;;;;-139.48;100.00;61774.03;5033270;28;20083;-70
2021/04/16 04:37:48;;;;;;;7.53;5.10;;;;;;;-139.48;100.00;61774.03;5018679;28;20563;-68
2021/04/16 04:40:33;;;;;;;5.65;4.55;;;;;;;-139.48;100.00;61774.03;5018567;28;20107;-69
2021/04/16 04:43:17;;;;;;;6.53;5.10;;;;;;;-139.48;100.00;61774.03;5033189;28;20405;-70
2021/04/16 04:46:02;;;;;;;7.40;4.57;;;;;;;-139.48;100.00;61774.03;5018484;28;20140;-69
2021/04/16 04:48:46;;;;;;;6.57;4.63;;;;;;;-139.48;100.00;61774.03;5004833;28;20052;-69
2021/04/16 04:51:30;;;;;;;9.23;5.82;;;;;;;-139.48;100.00;61774.03;5033162;28;20095;-70
2021/04/16 04:54:14;;;;;;;17.08;10.35;;;;;;;-139.48;100.00;61774.03;5033017;28;20127;-69
2021/04/16 04:56:58;;;;;;;20.52;12.85;;;;;;;-139.48;100.00;61774.03;5018429;28;20118;-69
2021/04/16 04:59:42;;;;;;;12.25;8.27;;;;;;;-139.48;100.00;61774.03;5018177;28;20049;-69
2021/04/16 05:02:26;;;;;;;7.85;5.45;;;;;;;-139.48;100.00;61774.03;5018494;28;20115;-69
2021/04/16 05:05:11;;;;;;;7.38;4.97;;;;;;;-139.48;100.00;61774.03;5018074;28;20049;-70
2021/04/16 05:07:55;;;;;;;9.82;5.40;;;;;;;-139.48;100.00;61774.03;5018018;28;20111;-69
2021/04/16 05:10:39;;;;;;;8.95;5.28;;;;;;;-139.48;100.00;61774.03;5033162;28;20071;-68
2021/04/16 05:13:23;;;;;;;14.07;8.25;;;;;;;-139.48;100.00;61774.03;5018213;28;20154;-69
2021/04/16 05:16:12;;;;;;;30.00;13.73;;;;;;;-139.48;100.00;61774.03;5018083;28;20111;-70
2021/04/16 05:18:57;;;;;;;37.75;18.02;;;;;;;-139.48;100.00;61774.03;5004957;28;20041;-68
2021/04/16 05:21:42;;;;;;;36.78;17.80;;;;;;;-139.48;100.00;61774.03;5018659;28;20049;-70
2021/04/16 05:24:31;;;;;;;25.52;13.70;;;;;;;-139.48;100.00;61774.03;5017990;28;20163;-70
2021/04/16 05:27:18;;;;;;;24.23;12.73;;;;;;;-139.48;100.00;61774.03;5018866;28;20128;-69
2021/04/16 05:30:04;;;;;;;11.10;6.97;;;;;;;-139.48;100.00;61774.03;5004276;28;20048;-69
2021/04/16 05:32:48;;;;;;;11.98;6.60;;;;;;;-139.48;100.00;61774.03;5032941;28;20543;-70
2021/04/16 05:35:32;;;;;;;8.00;5.72;;;;;;;-139.48;100.00;61774.03;5033073;28;20041;-69
2021/04/16 05:38:15;;;;;;;9.63;5.68;;;;;;;-139.48;100.00;61774.03;5018074;28;20513;-70
2021/04/16 05:40:59;;;;;;;11.38;6.03;;;;;;;-139.48;100.00;61774.03;5033001;28;20098;-68
2021/04/16 05:43:43;;;;;;;9.32;5.90;;;;;;;-139.48;100.00;61774.03;5018107;28;20048;-69
2021/04/16 05:46:27;;;;;;;11.43;7.90;;;;;;;-139.48;100.00;61774.03;5032708;28;20095;-68
2021/04/16 05:49:11;;;;;;;12.07;7.47;;;;;;;-139.48;100.00;61774.03;5004025;28;20053;-69
2021/04/16 05:51:55;;;;;;;10.00;6.35;;;;;;;-139.48;100.00;61774.03;5004347;28;20107;-69
2021/04/16 05:54:39;;;;;;;8.52;6.20;;;;;;;-139.48;100.00;61774.03;5017519;28;20095;-70
2021/04/16 05:57:23;;;;;;;11.75;6.72;;;;;;;-139.48;100.00;61774.03;5034858;28;20052;-69
2021/04/16 06:00:10;;;;;;;7.63;5.60;;;;;;;-139.48;100.00;61774.03;5021174;28;20047;-69
2021/04/16 06:02:54;;;;;;;11.52;7.45;;;;;;;-139.48;100.00;61774.03;5036134;28;20060;-69
2021/04/16 06:05:40;;;;;;;14.68;7.40;;;;;;;-139.48;100.00;61774.03;5036358;28;20517;-70
2021/04/16 06:08:25;;;;;;;19.90;10.82;;;;;;;-139.48;100.00;61774.03;5007267;28;20056;-70
2021/04/16 06:11:10;;;;;;;20.75;11.85;;;;;;;-139.48;100.00;61774.03;5021543;28;20040;-70
2021/04/16 06:13:54;;;;;;;14.93;10.70;;;;;;;-139.48;100.00;61774.03;5036037;28;20160;-70
2021/04/16 06:16:38;;;;;;;11.38;8.38;;;;;;;-139.48;100.00;61774.03;5021025;28;20195;-69
2021/04/16 06:19:22;;;;;;;9.65;7.28;;;;;;;-139.48;100.00;61774.03;5035871;28;20048;-70
2021/04/16 06:22:07;;;;;;;11.45;7.10;;;;;;;-139.48;100.00;61774.03;5007224;28;20056;-70
2021/04/16 06:24:50;;;;;;;14.13;6.82;;;;;;;-139.48;100.00;61774.03;5020710;28;20049;-69
2021/04/16 06:27:35;;;;;;;9.07;6.78;;;;;;;-139.48;100.00;61774.03;5035697;28;20056;-68
2021/04/16 06:30:20;;;;;;;12.48;8.43;;;;;;;-139.48;100.00;61774.03;5007086;28;20510;-70
2021/04/16 06:33:24;;;;;;;10.93;7.15;;;;;;;-139.48;100.00;61774.03;5006727;28;20083;-69
2021/04/16 06:36:11;;;;;;;11.52;7.00;;;;;;;-139.48;100.00;61774.03;5035858;28;20052;-69
2021/04/16 06:38:55;;;;;;;12.07;7.30;;;;;;;-139.48;100.00;61774.03;5006726;28;20053;-69
2021/04/16 06:41:39;;;;;;;9.10;6.65;;;;;;;-139.48;100.00;61774.03;5020435;28;20095;-69
2021/04/16 06:44:26;;;;;;;12.55;7.18;;;;;;;-139.48;100.00;61774.03;5006800;28;20048;-70
2021/04/16 06:47:17;;;;;;;8.88;6.35;;;;;;;-139.48;100.00;61774.03;5021011;28;20055;-70
2021/04/16 06:50:03;;;;;;;9.40;6.78;;;;;;;-139.48;100.00;61774.03;5006957;28;20048;-70
2021/04/16 06:53:03;;;;;;;8.77;6.38;;;;;;;-139.48;100.00;61774.03;5035201;28;20068;-69
2021/04/16 06:55:53;;;;;;;9.40;6.72;;;;;;;-139.48;100.00;61774.03;5020446;28;20099;-70
2021/04/16 06:58:50;;;;;;;12.10;7.35;;;;;;;-139.48;100.00;61774.03;5035376;28;20048;-69
2021/04/16 07:01:45;;;;;;;11.75;7.82;;;;;;;-139.48;100.00;61774.03;5020253;28;20103;-68
2021/04/16 07:04:29;;;;;;;;;;;;;;;-139.48;100.00;61774.03;5020484;28;20048;-70
2021/04/16 07:07:23;;;;;;;10.25;7.47;;;;;;;-139.48;100.00;61774.03;5035107;28;19920;-69
2021/04/16 07:10:16;;;;;;;11.02;6.88;;;;;;;-139.48;100.00;61774.03;5005617;28;20040;-69
2021/04/16 07:13:02;;;;;;;10.88;6.65;;;;;;;-139.48;100.00;61774.03;5034704;28;20045;-70
2021/04/16 07:15:46;;;;;;;11.23;6.65;;;;;;;-139.48;100.00;61774.03;5020107;28;20068;-70
2021/04/16 07:18:34;;;;;;;12.00;6.95;;;;;;;-139.48;100.00;61774.03;5020035;28;20107;-70
2021/04/16 07:21:20;;;;;;;9.77;6.35;;;;;;;-139.48;100.00;61774.03;5020015;28;20056;-70
2021/04/16 07:24:06;;;;;;;11.32;6.65;;;;;;;-139.48;100.00;61774.03;5005988;28;20068;-70
2021/04/16 07:26:57;;;;;;;8.57;6.25;;;;;;;-139.48;100.00;61774.03;5019797;28;20465;-70
2021/04/16 07:29:45;;;;;;;11.05;6.30;;;;;;;-139.48;100.00;61774.03;5020429;28;20459;-70
2021/04/16 07:32:40;;;;;;;9.27;6.28;;;;;;;-139.48;100.00;61774.03;5019500;28;20044;-70
2021/04/16 07:35:29;;;;;;;10.13;6.57;;;;;;;-139.48;100.00;61774.03;5005917;28;20060;-69
2021/04/16 07:38:23;;;;;;;9.05;6.72;;;;;;;-139.48;100.00;61774.03;5019202;28;20052;-69
2021/04/16 07:41:42;;;;;;;13.53;7.83;;;;;;;-139.48;100.00;61774.03;5005765;28;20048;-70
2021/04/16 07:44:36;;;;;;;14.43;7.18;;;;;;;-139.48;100.00;61774.03;5015807;28;20126;-70
2021/04/16 07:47:24;;;;;;;10.38;7.78;;;;;;;-139.48;100.00;61774.03;5019562;28;20469;-70
2021/04/16 07:50:14;;;;;;;12.35;7.68;;;;;;;-139.48;100.00;61774.03;5005345;28;20498;-69
2021/04/16 07:52:59;;;;;;;11.65;7.35;;;;;;;-139.48;100.00;61774.03;5018310;28;20044;-69
2021/04/16 07:55:43;;;;;;;11.80;7.70;;;;;;;-139.48;100.00;61774.03;5018639;28;20052;-70
2021/04/16 07:58:27;;;;;;;14.75;8.07;;;;;;;-139.48;100.00;61774.03;5019201;28;20155;-70
2021/04/16 08:01:40;;;;;;;10.52;7.57;;;;;;;-139.48;100.00;61774.03;5018851;28;20414;-69
2021/04/16 08:04:24;;;;;;;12.88;8.02;;;;;;;-139.48;100.00;61774.03;5026899;28;20040;-70
2021/04/16 08:07:15;;;;;;;12.13;7.70;;;;;;;-139.48;100.00;61774.03;5019249;28;20099;-70
2021/04/16 08:10:13;;;;;;;11.65;7.75;;;;;;;-139.48;100.00;61774.03;5034041;28;20056;-70
2021/04/16 08:13:07;;;;;;;10.00;7.50;;;;;;;-139.48;100.00;61774.03;5018709;28;20047;-70
2021/04/16 08:15:52;;;;;;;10.52;7.45;;;;;;;-139.48;100.00;61774.03;5018892;28;20620;-70
2021/04/16 08:18:36;;;;;;;13.38;7.50;;;;;;;-139.48;100.00;61774.03;5018913;28;20121;-71
2021/04/16 08:21:22;;;;;;;11.80;7.72;;;;;;;-139.48;100.00;61774.03;5019061;28;20052;-70
2021/04/16 08:24:23;;;;;;;11.43;7.93;;;;;;;-139.48;100.00;61774.03;5018453;28;20548;-70
2021/04/16 08:27:27;;;;;;;10.65;7.55;;;;;;;-139.48;100.00;61774.03;5004806;28;20048;-70
2021/04/16 08:30:15;;;;;;;9.18;7.22;;;;;;;-139.48;100.00;61774.03;5018797;28;20047;-70
2021/04/16 08:33:08;;;;;;;10.13;7.22;;;;;;;-139.48;100.00;61774.03;5018442;28;20132;-70
2021/04/16 08:36:08;;;;;;;11.70;7.22;;;;;;;-139.48;100.00;61774.03;5018733;28;20079;-69
2021/04/16 08:38:55;;;;;;;10.02;7.20;;;;;;;-139.48;100.00;61774.03;5033777;28;20124;-70
2021/04/16 08:41:48;;;;;;;12.02;7.00;;;;;;;-139.48;100.00;61774.03;5033250;28;20052;-70
2021/04/16 08:44:37;;;;;;;10.48;7.18;;;;;;;-139.48;100.00;61774.03;5018558;28;20071;-70
2021/04/16 08:47:53;;;;;;;9.20;6.78;;;;;;;-139.48;100.00;61774.03;5018152;28;20106;-69
2021/04/16 08:50:41;;;;;;;10.02;7.03;;;;;;;-139.48;100.00;61774.03;5018499;28;20107;-70
2021/04/16 08:53:26;;;;;;;8.85;6.90;;;;;;;-139.48;100.00;61774.03;5033073;28;20044;-70
2021/04/16 08:56:25;;;;;;;9.27;6.47;;;;;;;-139.48;100.00;61774.03;5032992;28;20518;-70
2021/04/16 08:59:12;;;;;;;9.40;7.40;;;;;;;-139.48;100.00;61774.03;5018221;28;20056;-70
2021/04/16 09:02:15;;;;;;;7.78;5.40;;;;;;;-139.48;100.00;61774.03;5018363;28;20457;-70
2021/04/16 09:05:27;;;;;;;6.60;5.50;;;;;;;-139.48;100.00;61774.03;5033251;28;20407;-70
2021/04/16 09:08:11;;;;;;;9.85;5.50;;;;;;;-139.48;100.00;61774.03;5018113;28;20048;-70
2021/04/16 09:10:56;;;;;;;;;;;;;;;-139.48;100.00;61774.03;5033706;28;20140;-70
2021/04/16 09:13:40;;;;;;;;;;;;;;;-139.48;100.00;61774.03;5018408;28;19920;-70
2021/04/16 09:16:50;;;;;;;7.32;5.35;;;;;;;-139.48;100.00;61774.03;5033002;28;19928;-68
2021/04/16 09:19:34;;;;;;;5.80;4.80;;;;;;;-139.48;100.00;61774.03;5018291;28;20129;-69
2021/04/16 09:22:34;;;;;;;8.52;5.35;;;;;;;-139.48;100.00;61774.03;5033096;28;20501;-69
2021/04/16 09:25:36;;;;;;;8.75;5.60;;;;;;;-139.48;100.00;61774.03;5033055;28;20060;-70
2021/04/16 09:28:23;;;;;;;6.85;5.50;;;;;;;-139.48;100.00;61774.03;5017905;28;20156;-70
2021/04/16 09:31:23;;;;;;;6.47;4.60;;;;;;;-139.48;100.00;61774.03;5032906;28;20426;-70
2021/04/16 09:34:15;;;;;;;6.25;4.75;;;;;;;-139.48;100.00;61774.03;5036813;28;20048;-70
2021/04/16 09:37:34;;;;;;;6.93;4.50;;;;;;;-139.48;100.00;61774.03;5021631;28;20560;-68
2021/04/16 09:40:27;;;;;;;7.10;4.60;;;;;;;-139.48;100.00;61774.03;5021581;28;20517;-70
2021/04/16 09:43:11;;;;;;;7.93;4.50;;;;;;;-139.48;100.00;61774.03;5036403;28;20040;-70
2021/04/16 09:45:55;;;;;;;5.40;3.97;;;;;;;-139.48;100.00;61774.03;5036779;28;20056;-70
2021/04/16 09:48:47;;;;;;;5.53;4.22;;;;;;;-139.48;100.00;61774.03;5021585;28;20047;-70
2021/04/16 09:51:33;;;;;;;5.38;4.43;;;;;;;-139.48;100.00;61774.03;5021361;28;20132;-70
2021/04/16 09:54:21;;;;;;;5.93;4.00;;;;;;;-139.48;100.00;61774.03;5036154;28;20064;-70
2021/04/16 09:57:06;;;;;;;6.80;4.20;;;;;;;-139.48;100.00;61774.03;5036286;28;20114;-69
2021/04/16 09:59:50;;;;;;;4.22;3.47;;;;;;;-139.48;100.00;61774.03;5036219;28;20112;-69
2021/04/16 10:02:37;;;;;;;6.00;4.50;;;;;;;-139.48;100.00;61774.03;5021667;28;20052;-70
2021/04/16 10:05:30;;;;;;;8.07;4.50;;;;;;;-139.48;100.00;61774.03;5021499;28;20072;-70
2021/04/16 10:08:29;;;;;;;7.90;4.63;;;;;;;-139.48;100.00;61774.03;5021359;28;20048;-70
2021/04/16 10:11:17;;;;;;;5.35;4.22;;;;;;;-139.48;100.00;61774.03;5020982;28;20564;-70
2021/04/16 10:14:15;;;;;;;8.15;4.72;;;;;;;-139.48;100.00;61774.03;5020757;28;20045;-70
2021/04/16 10:17:08;;;;;;;6.50;4.72;;;;;;;-139.48;100.00;61774.03;5020865;28;20061;-67
2021/04/16 10:20:08;;;;;;;6.65;4.22;;;;;;;-139.48;100.00;61774.03;5036123;28;20043;-70
2021/04/16 10:23:05;;;;;;;6.60;4.22;;;;;;;-139.48;100.00;61774.03;5020894;28;20095;-70
2021/04/16 10:57:23;;;;;;;8.70;4.32;;;;;;;-139.48;100.00;61774.03;5020704;28;20037;-70
2021/04/16 12:41:27;;;;;;;5.63;3.78;;;;;;;-139.48;100.00;61774.03;5033833;28;20048;-70
2021/04/16 12:44:38;;;;;;;4.63;3.38;;;;;;;-139.48;100.00;61774.03;5018466;28;20068;-69
2021/04/16 12:47:25;;;;;;;4.22;3.13;;;;;;;-139.48;100.00;61774.03;5004499;28;20099;-70
2021/04/16 12:50:11;;;;;;;5.45;3.63;;;;;;;-139.48;100.00;61774.03;5018197;28;20045;-69
2021/04/16 12:52:55;;;;;;;3.92;3.42;;;;;;;-139.48;100.00;61774.03;5033446;28;20164;-70
2021/04/16 12:55:39;;;;;;;5.55;3.15;;;;;;;-139.48;100.00;61774.03;5033382;28;20047;-70
2021/04/16 12:58:27;;;;;;;4.53;3.33;;;;;;;-139.48;100.00;61774.03;5018409;28;20072;-70
2021/04/16 13:01:25;;;;;;;3.70;3.20;;;;;;;-139.48;100.00;61774.03;5018360;28;20148;-69
2021/04/16 13:04:09;;;;;;;5.40;2.92;;;;;;;-139.48;100.00;61774.03;5018349;28;20042;-70
2021/04/16 13:06:58;;;;;;;8.65;3.67;;;;;;;-139.48;100.00;61774.03;5021554;28;20048;-70
2021/04/16 13:09:42;;;;;;;3.67;2.90;;;;;;;-139.48;100.00;61774.03;5008290;28;20099;-70
2021/04/16 13:12:26;;;;;;;3.15;2.80;;;;;;;-139.48;100.00;61774.03;5008554;28;20099;-70
2021/04/16 13:15:13;;;;;;;5.80;2.70;;;;;;;-139.48;100.00;61774.03;5036789;28;20552;-70
2021/04/16 13:18:19;;;;;;;2.53;2.25;;;;;;;-139.48;100.00;61774.03;5022728;28;20099;-69
2021/04/16 13:21:06;;;;;;;3.85;2.80;;;;;;;-139.48;100.00;61774.03;5033278;28;20572;-70
2021/04/16 13:23:50;;;;;;;2.53;2.33;;;;;;;-139.48;100.00;61774.03;5021748;28;20052;-70
2021/04/16 13:26:35;;;;;;;2.88;2.20;;;;;;;-139.48;100.00;61774.03;5037135;28;20092;-70
2021/04/16 13:29:19;;;;;;;4.43;2.90;;;;;;;-139.48;100.00;61774.03;5022040;28;20121;-70
2021/04/16 13:32:06;;;;;;;3.33;2.70;;;;;;;-139.48;100.00;61774.03;5021984;28;20467;-69
2021/04/16 13:34:53;;;;;;;4.82;2.67;;;;;;;-139.48;100.00;61774.03;5021655;28;20096;-70
2021/04/16 13:37:37;;;;;;;2.72;2.50;;;;;;;-139.48;100.00;61774.03;5007957;28;20100;-69
2021/04/16 13:40:20;;;;;;;3.40;2.45;;;;;;;-139.48;100.00;61774.03;5022105;28;20053;-70
2021/04/16 13:43:05;;;;;;;3.47;2.58;;;;;;;-139.48;100.00;61774.03;5021799;28;20052;-70
2021/04/16 13:45:49;;;;;;;2.28;2.08;;;;;;;-139.48;100.00;61774.03;5021592;28;20047;-69
2021/04/16 13:48:34;;;;;;;3.20;2.38;;;;;;;-139.48;100.00;61774.03;5021753;28;20048;-69
2021/04/16 13:51:19;;;;;;;5.25;2.45;;;;;;;-139.48;100.00;61774.03;5021492;28;20575;-71
2021/04/16 13:54:05;;;;;;;2.67;2.45;;;;;;;-139.48;100.00;61774.03;5021473;28;20052;-70
2021/04/16 13:56:50;;;;;;;2.38;2.10;;;;;;;-139.48;100.00;61774.03;5036300;28;20514;-70
2021/04/16 13:59:34;;;;;;;4.00;2.10;;;;;;;-139.48;100.00;61774.03;5021648;28;20179;-70
2021/04/16 14:02:22;;;;;;;3.47;2.45;;;;;;;-139.48;100.00;61774.03;5021479;28;20123;-69
2021/04/16 14:05:07;;;;;;;3.38;2.50;;;;;;;-139.48;100.00;61774.03;5007266;28;20143;-69
2021/04/16 14:07:52;;;;;;;2.90;2.60;;;;;;;-139.48;100.00;61774.03;5036363;28;20047;-70
2021/04/16 14:10:37;;;;;;;3.65;2.38;;;;;;;-139.48;100.00;61774.03;5021444;28;20052;-69
2021/04/16 14:13:21;;;;;;;3.65;2.75;;;;;;;-139.48;100.00;61774.03;5036011;28;20082;-69
2021/04/16 14:16:08;;;;;;;5.63;2.20;;;;;;;-139.48;100.00;61774.03;5021139;28;20127;-69
2021/04/16 14:18:52;;;;;;;3.97;2.25;;;;;;;-139.48;100.00;61774.03;5020415;28;20417;-69
2021/04/16 14:21:39;;;;;;;3.63;2.05;;;;;;;-139.48;100.00;61774.03;5021096;28;20064;-70
2021/04/16 14:24:23;;;;;;;3.63;2.38;;;;;;;-139.48;100.00;61774.03;5006944;28;20049;-70
2021/04/16 14:27:08;;;;;;;2.30;2.10;;;;;;;-139.48;100.00;61774.03;5020977;28;20079;-69
2021/04/16 14:29:53;;;;;;;3.38;2.30;;;;;;;-139.48;100.00;61774.03;5020907;28;20048;-70
2021/04/16 14:32:36;;;;;;;2.72;2.03;;;;;;;-139.48;100.00;61774.03;5035488;28;20469;-70
2021/04/16 14:35:22;;;;;;;2.05;1.85;;;;;;;-139.48;100.00;61774.03;5020572;28;20099;-69
2021/04/16 14:38:06;;;;;;;2.60;2.10;;;;;;;-139.48;100.00;61774.03;5020842;28;20052;-70
2021/04/16 14:40:50;;;;;;;2.03;1.83;;;;;;;-139.48;100.00;61774.03;5035542;28;20410;-69
2021/04/16 14:43:35;;;;;;;2.42;2.20;;;;;;;-139.48;100.00;61774.03;5035296;28;20076;-67
2021/04/16 14:46:20;;;;;;;3.22;2.20;;;;;;;-139.48;100.00;61774.03;5020475;28;20114;-70
2021/04/16 14:49:04;;;;;;;;;;;;;;;-139.48;100.00;61774.03;5020728;28;20422;-70
2021/04/16 14:51:48;;;;;;;2.92;1.90;;;;;;;-139.48;100.00;61774.03;5020644;28;20273;-69
2021/04/16 14:54:37;;;;;;;2.22;1.77;;;;;;;-139.48;100.00;61774.03;5020418;28;20048;-70